Time;durP1;ratioP1;P1;durP2;ratioP2;P2;SDS_P1;SDS_P2;PMS_P1;PMS_P2;Temp;Humidity;BMP_temperature;BMP_pressure;BME280_temperature;BME280_humidity;BME280_pressure;Samples;Min_cycle;Max_cycle;Signal;HPM_P1;HPM_P2
2021/01/06 00:00:23;;;;;;;95.43;35.20;;;;;;;-2.43;100.00;95065.28;1030864;28;20065;-70
2021/01/06 00:00:53;;;;;;;96.13;35.93;;;;;;;-2.41;100.00;95074.38;1032070;28;20021;-70
2021/01/06 00:01:23;;;;;;;112.57;38.50;;;;;;;-2.38;100.00;95084.25;1026695;28;20660;-71
2021/01/06 00:01:54;;;;;;;100.00;37.23;;;;;;;-2.58;100.00;95046.69;1025631;28;20023;-69
2021/01/06 00:02:24;;;;;;;93.37;35.83;;;;;;;-2.34;100.00;95078.72;1025873;28;20035;-69
2021/01/06 00:02:55;;;;;;;90.47;35.90;;;;;;;-2.31;100.00;95083.44;1034729;28;20401;-71
2021/01/06 00:03:26;;;;;;;99.10;36.43;;;;;;;-2.44;100.00;95061.13;1034139;28;20018;-70
2021/01/06 00:03:59;;;;;;;94.07;35.57;;;;;;;-2.34;100.00;95079.50;1030528;28;20372;-71
2021/01/06 00:04:29;;;;;;;91.45;35.30;;;;;;;-2.33;100.00;95080.31;1031079;28;20089;-70
2021/01/06 00:04:59;;;;;;;91.13;34.13;;;;;;;-2.30;100.00;95069.63;1030373;28;20453;-70
2021/01/06 00:05:30;;;;;;;85.87;33.50;;;;;;;-2.45;100.00;95052.66;1030058;28;20026;-73
2021/01/06 00:06:07;;;;;;;90.80;34.77;;;;;;;-2.38;100.00;95066.28;1034449;28;20473;-70
2021/01/06 00:06:37;;;;;;;84.90;33.92;;;;;;;-2.36;100.00;95060.94;1026353;28;20018;-71
2021/01/06 00:07:08;;;;;;;88.83;33.87;;;;;;;-2.25;100.00;95080.88;1026387;28;20205;-72
2021/01/06 00:07:44;;;;;;;90.63;34.23;;;;;;;-2.34;100.00;95069.25;1030316;28;20603;-71
2021/01/06 00:08:15;;;;;;;95.50;35.13;;;;;;;-2.28;100.00;95073.59;1031725;28;20511;-70
2021/01/06 00:08:45;;;;;;;80.60;32.30;;;;;;;-2.32;100.00;95077.53;1035697;28;20033;-71
2021/01/06 00:09:16;;;;;;;98.47;35.90;;;;;;;-2.55;100.00;95041.94;1027503;28;20453;-72
2021/01/06 00:09:46;;;;;;;96.57;35.30;;;;;;;-2.37;100.00;95064.50;1027639;28;20045;-71
2021/01/06 00:10:22;;;;;;;89.70;35.63;;;;;;;-2.27;100.00;95082.09;1035285;28;20074;-70
2021/01/06 00:10:54;;;;;;;94.72;34.13;;;;;;;-2.40;100.00;95065.66;1034932;28;20744;-68
2021/01/06 00:11:32;;;;;;;86.88;33.97;;;;;;;-2.39;100.00;95069.03;1031059;28;20030;-70
2021/01/06 00:12:06;;;;;;;88.85;33.15;;;;;;;-2.30;100.00;95085.81;1031332;28;20383;-70
2021/01/06 00:12:36;;;;;;;93.18;33.42;;;;;;;-2.29;100.00;95084.84;1033667;28;20038;-72
2021/01/06 00:13:07;;;;;;;94.20;34.03;;;;;;;-2.39;100.00;95066.47;1032566;28;20037;-69
2021/01/06 00:13:37;;;;;;;84.67;33.83;;;;;;;-2.31;100.00;95078.31;1031787;28;20034;-70
2021/01/06 00:14:09;;;;;;;96.30;36.40;;;;;;;-2.31;100.00;95084.25;1037181;28;20117;-70
2021/01/06 00:14:39;;;;;;;94.30;35.10;;;;;;;-2.31;100.00;95084.25;1027320;28;20027;-70
2021/01/06 00:15:27;;;;;;;82.13;33.43;;;;;;;-2.31;100.00;95076.56;1031793;28;20400;-71
2021/01/06 00:16:00;;;;;;;;;;;;;;;-2.29;100.00;95076.34;1035147;28;20026;-71
2021/01/06 00:16:31;;;;;;;;;;;;;;;-2.32;100.00;95085.22;1038755;28;19909;-71
2021/01/06 00:17:01;;;;;;;89.60;32.00;;;;;;;-2.35;100.00;95082.25;1035357;28;19913;-70
2021/01/06 00:17:32;;;;;;;79.77;31.40;;;;;;;-2.33;100.00;95073.38;1025468;28;20035;-71
2021/01/06 00:18:03;;;;;;;88.07;32.10;;;;;;;-2.36;100.00;95078.91;1027594;28;20039;-73
2021/01/06 00:18:34;;;;;;;94.65;33.60;;;;;;;-2.29;100.00;95077.13;1027248;28;20027;-70
2021/01/06 00:19:05;;;;;;;86.77;32.17;;;;;;;-2.33;100.00;95063.09;1034145;28;20064;-72
2021/01/06 00:19:35;;;;;;;87.15;33.55;;;;;;;-2.23;100.00;95080.69;1035212;28;20092;-72
2021/01/06 00:20:09;;;;;;;80.97;32.43;;;;;;;-2.28;100.00;95068.44;1031244;28;20088;-71
2021/01/06 00:20:40;;;;;;;78.10;31.23;;;;;;;-2.23;100.00;95081.47;1027406;28;20529;-69
2021/01/06 00:21:10;;;;;;;79.60;32.50;;;;;;;-2.20;100.00;95080.28;1030847;28;20030;-73
2021/01/06 00:21:41;;;;;;;75.07;31.03;;;;;;;-2.20;100.00;95075.16;1027687;28;20026;-70
2021/01/06 00:22:11;;;;;;;79.90;33.40;;;;;;;-2.18;100.00;95073.97;1030949;28;20073;-72
2021/01/06 00:22:42;;;;;;;91.30;32.93;;;;;;;-2.27;100.00;95064.88;1031823;28;20034;-71
2021/01/06 00:23:12;;;;;;;83.37;32.60;;;;;;;-2.19;100.00;95074.16;1031273;28;20473;-73
2021/01/06 00:23:43;;;;;;;80.40;34.10;;;;;;;-2.16;100.00;95074.53;1027302;28;20069;-70
2021/01/06 00:24:13;;;;;;;83.37;33.10;;;;;;;-2.22;100.00;95070.19;1034623;28;20051;-71
2021/01/06 00:24:44;;;;;;;82.73;33.83;;;;;;;-2.13;100.00;95076.72;1039618;28;20033;-70
2021/01/06 00:25:35;;;;;;;86.60;34.17;;;;;;;-2.16;100.00;95077.13;1039208;28;20059;-71
2021/01/06 00:26:05;;;;;;;80.97;30.67;;;;;;;-2.22;100.00;95075.34;1033789;28;20017;-71
2021/01/06 00:26:36;;;;;;;81.90;33.17;;;;;;;-2.25;100.00;95062.09;1031234;28;20019;-71
2021/01/06 00:27:07;;;;;;;88.13;32.37;;;;;;;-2.19;100.00;95080.09;1027041;28;20513;-71
2021/01/06 00:27:38;;;;;;;92.77;34.27;;;;;;;-2.29;100.00;95066.06;1023549;28;20019;-70
2021/01/06 00:28:10;;;;;;;90.32;34.70;;;;;;;-2.27;100.00;95072.59;1023207;28;20030;-71
2021/01/06 00:28:40;;;;;;;86.97;33.25;;;;;;;-2.22;100.00;95072.78;1019242;29;20443;-74
2021/01/06 00:29:11;;;;;;;87.43;33.23;;;;;;;-2.28;100.00;95067.63;1023058;29;20031;-72
2021/01/06 00:29:41;;;;;;;90.87;32.30;;;;;;;-2.21;100.00;95079.50;1027276;28;20023;-70
2021/01/06 00:30:18;;;;;;;90.37;34.50;;;;;;;-2.18;100.00;95075.72;1019433;29;20055;-70
2021/01/06 00:30:54;;;;;;;82.65;33.10;;;;;;;-2.16;100.00;95077.13;1021313;28;20020;-71
2021/01/06 00:31:25;;;;;;;85.68;32.88;;;;;;;-2.20;100.00;95075.94;1027228;28;20027;-73
2021/01/06 00:31:55;;;;;;;84.90;33.63;;;;;;;-2.19;100.00;95076.72;1031210;28;20513;-70
2021/01/06 00:32:26;;;;;;;84.80;33.57;;;;;;;-2.19;100.00;95081.88;1030303;28;20038;-69
2021/01/06 00:32:56;;;;;;;83.93;32.07;;;;;;;-2.22;100.00;95065.06;1030144;28;20022;-69
2021/01/06 00:33:31;;;;;;;83.20;31.93;;;;;;;-2.25;100.00;95062.88;1031047;28;20015;-71
2021/01/06 00:34:02;;;;;;;89.32;33.85;;;;;;;-2.18;100.00;95073.16;1031705;28;20011;-71
2021/01/06 00:34:32;;;;;;;75.03;31.40;;;;;;;-2.16;100.00;95069.41;1030383;28;20088;-70
2021/01/06 00:35:04;;;;;;;79.87;32.20;;;;;;;-2.23;100.00;95060.13;1030172;28;20022;-70
2021/01/06 00:35:34;;;;;;;82.28;31.33;;;;;;;-2.18;100.00;95073.97;1034408;28;20026;-71
2021/01/06 00:36:12;;;;;;;84.73;33.57;;;;;;;-2.22;100.00;95067.63;1030479;28;20820;-72
2021/01/06 00:36:43;;;;;;;84.22;31.20;;;;;;;-2.19;100.00;95069.00;1026841;28;20014;-71
2021/01/06 00:37:14;;;;;;;90.43;34.07;;;;;;;-2.27;100.00;95062.31;1026969;28;20085;-70
2021/01/06 00:37:45;;;;;;;79.93;33.50;;;;;;;-2.20;100.00;95078.50;1023043;29;20034;-72
2021/01/06 00:38:15;;;;;;;89.60;33.97;;;;;;;-2.19;100.00;95067.22;1020813;28;20023;-71
2021/01/06 00:38:46;;;;;;;86.37;33.53;;;;;;;-2.16;100.00;95069.41;1026539;28;20105;-70
2021/01/06 00:39:17;;;;;;;80.43;33.33;;;;;;;-2.09;100.00;95064.25;1029819;28;20027;-71
2021/01/06 00:39:47;;;;;;;93.87;35.50;;;;;;;-2.09;100.00;95071.19;1033780;28;20030;-70
2021/01/06 00:40:18;;;;;;;79.97;32.70;;;;;;;-2.16;100.00;95066.06;1027354;28;20393;-70
2021/01/06 00:40:49;;;;;;;88.07;33.08;;;;;;;-2.06;100.00;95073.34;1026600;28;20018;-72
2021/01/06 00:41:28;;;;;;;85.97;34.17;;;;;;;-2.02;100.00;95077.88;1029153;28;20030;-70
2021/01/06 00:41:59;;;;;;;83.63;33.42;;;;;;;-2.05;100.00;95072.34;1029377;28;20030;-73
2021/01/06 00:42:29;;;;;;;90.37;33.60;;;;;;;-2.05;100.00;95072.34;1031809;28;20029;-71
2021/01/06 00:43:09;;;;;;;89.70;34.20;;;;;;;-2.16;100.00;95064.25;1037671;28;20026;-70
2021/01/06 00:43:39;;;;;;;90.35;33.45;;;;;;;-2.19;100.00;95062.09;1040001;28;20018;-71
2021/01/06 00:44:10;;;;;;;93.70;35.43;;;;;;;-2.11;100.00;95070.56;1038758;28;20488;-71
2021/01/06 00:44:40;;;;;;;90.40;34.10;;;;;;;-2.08;100.00;95075.31;1035040;28;20106;-71
2021/01/06 00:45:14;;;;;;;94.63;35.80;;;;;;;-2.05;100.00;95077.50;1031256;28;20026;-70
2021/01/06 00:45:45;;;;;;;86.15;34.20;;;;;;;-2.05;100.00;95077.50;1026617;28;20560;-70
2021/01/06 00:46:15;;;;;;;88.33;33.83;;;;;;;-2.03;100.00;95083.25;1023259;29;20028;-72
2021/01/06 00:46:45;;;;;;;90.23;34.90;;;;;;;-2.03;100.00;95075.53;1023002;29;20051;-70
2021/01/06 00:47:16;;;;;;;99.37;36.87;;;;;;;-2.10;100.00;95080.69;1023186;28;20034;-70
2021/01/06 00:47:46;;;;;;;101.27;37.30;;;;;;;-2.05;100.00;95082.63;1035290;28;20033;-69
2021/01/06 00:48:17;;;;;;;98.30;35.90;;;;;;;-2.05;100.00;95080.06;1039495;28;20132;-70
2021/01/06 00:48:48;;;;;;;101.03;35.93;;;;;;;-2.08;100.00;95072.75;1030902;28;20125;-71
2021/01/06 00:49:18;;;;;;;87.17;33.97;;;;;;;-2.00;100.00;95085.41;1027598;28;20103;-71
2021/01/06 00:49:49;;;;;;;103.73;37.53;;;;;;;-1.97;100.00;95085.81;1027690;28;20031;-70
2021/01/06 00:50:20;;;;;;;102.93;36.77;;;;;;;-2.06;100.00;95081.84;1035332;28;20029;-71
2021/01/06 00:50:51;;;;;;;102.63;37.53;;;;;;;-2.05;100.00;95082.63;1031231;28;20066;-70
2021/01/06 00:51:21;;;;;;;87.40;35.53;;;;;;;-2.04;100.00;95079.88;1027542;28;20035;-71
2021/01/06 00:51:51;;;;;;;96.77;35.73;;;;;;;-2.05;100.00;95077.50;1030682;28;20034;-71
2021/01/06 00:52:22;;;;;;;96.67;35.47;;;;;;;-2.03;100.00;95085.81;1026845;28;20041;-70
2021/01/06 00:53:00;;;;;;;97.20;36.37;;;;;;;-2.09;100.00;95086.59;1026971;28;20027;-70
2021/01/06 00:53:31;;;;;;;97.25;35.47;;;;;;;-2.07;100.00;95075.13;1034598;28;20249;-70
2021/01/06 00:54:01;;;;;;;96.57;35.10;;;;;;;-2.05;100.00;95082.63;1027190;28;20031;-71
2021/01/06 00:54:34;;;;;;;93.73;34.87;;;;;;;-2.08;100.00;95077.91;1028179;28;20033;-70
2021/01/06 00:55:05;;;;;;;110.10;36.90;;;;;;;-2.13;100.00;95075.94;1031662;28;20081;-69
2021/01/06 00:55:36;;;;;;;100.45;37.30;;;;;;;-2.07;100.00;95077.72;1023413;28;20136;-68
2021/01/06 00:56:06;;;;;;;106.93;36.63;;;;;;;-2.00;100.00;95085.41;1023888;28;20411;-70
2021/01/06 00:56:37;;;;;;;93.50;36.17;;;;;;;-2.00;100.00;95080.28;1027491;28;20030;-70
2021/01/06 00:57:07;;;;;;;101.87;35.40;;;;;;;-2.28;100.00;95039.38;1030872;28;20050;-71
2021/01/06 00:57:38;;;;;;;98.90;36.30;;;;;;;-2.19;100.00;95067.22;1031557;28;20026;-71
2021/01/06 00:58:08;;;;;;;101.00;36.30;;;;;;;-2.05;100.00;95078.28;1027122;28;20031;-71
2021/01/06 00:58:39;;;;;;;107.13;38.80;;;;;;;-2.01;100.00;95073.53;1026855;28;20031;-70
2021/01/06 00:59:10;;;;;;;104.07;36.03;;;;;;;-2.10;100.00;95074.75;1023142;28;20023;-71
2021/01/06 00:59:41;;;;;;;112.00;37.20;;;;;;;-2.06;100.00;95076.72;1027516;28;20035;-70
2021/01/06 01:00:17;;;;;;;108.03;37.83;;;;;;;-2.07;100.00;95072.56;1033108;28;20418;-72
2021/01/06 01:00:47;;;;;;;100.50;35.00;;;;;;;-2.03;100.00;95075.53;1032877;28;20018;-70
2021/01/06 01:01:17;;;;;;;101.73;35.37;;;;;;;-2.03;100.00;95070.38;1034915;28;20033;-72
2021/01/06 01:01:48;;;;;;;100.33;36.10;;;;;;;-2.02;100.00;95077.09;1031631;28;20089;-71
2021/01/06 01:02:18;;;;;;;99.17;36.73;;;;;;;-2.09;100.00;95061.69;1026396;28;20033;-71
2021/01/06 01:02:50;;;;;;;94.67;35.40;;;;;;;-2.02;100.00;95071.97;1022970;28;20038;-71
2021/01/06 01:03:21;;;;;;;108.22;38.08;;;;;;;-2.09;100.00;95058.34;1030646;28;20037;-69
2021/01/06 01:03:51;;;;;;;106.73;37.53;;;;;;;-2.02;100.00;95072.75;1030991;28;20072;-70
2021/01/06 01:04:22;;;;;;;105.17;39.37;;;;;;;-1.98;100.00;95073.94;1027510;28;20031;-71
2021/01/06 01:04:52;;;;;;;108.00;38.23;;;;;;;-2.02;100.00;95077.09;1031513;28;20413;-71
2021/01/06 01:05:25;;;;;;;106.10;38.77;;;;;;;-2.08;100.00;95065.84;1038776;28;20072;-70
2021/01/06 01:05:56;;;;;;;94.95;34.38;;;;;;;-2.01;100.00;95066.63;1031541;28;20042;-70
2021/01/06 01:06:27;;;;;;;93.97;34.23;;;;;;;-2.03;100.00;95060.88;1031270;28;20513;-72
2021/01/06 01:06:57;;;;;;;105.50;37.25;;;;;;;-1.99;100.00;95076.69;1028523;28;20058;-70
2021/01/06 01:07:29;;;;;;;101.17;35.93;;;;;;;-2.02;100.00;95077.09;1031010;28;20069;-71
2021/01/06 01:07:59;;;;;;;106.45;36.30;;;;;;;-2.00;100.00;95075.13;1026842;28;20038;-70
2021/01/06 01:08:30;;;;;;;104.73;35.50;;;;;;;-2.24;100.00;95038.00;1025968;28;20031;-71
2021/01/06 01:09:00;;;;;;;108.60;36.37;;;;;;;-2.00;100.00;95075.13;1021758;29;20027;-71
2021/01/06 01:09:31;;;;;;;110.87;36.17;;;;;;;-2.03;100.00;95081.44;1023129;28;20395;-71
2021/01/06 01:10:01;;;;;;;104.87;36.37;;;;;;;-2.14;100.00;95064.88;1027312;28;20070;-72
2021/01/06 01:10:37;;;;;;;104.50;36.07;;;;;;;-2.09;100.00;95071.19;1028570;28;20541;-71
2021/01/06 01:11:07;;;;;;;115.55;37.67;;;;;;;-2.09;100.00;95076.31;1027163;28;20137;-70
2021/01/06 01:11:38;;;;;;;114.23;36.50;;;;;;;-2.16;100.00;95073.75;1027417;28;20049;-69
2021/01/06 01:12:09;;;;;;;108.77;37.90;;;;;;;-2.13;100.00;95071.56;1028944;28;20117;-71
2021/01/06 01:12:40;;;;;;;105.47;35.83;;;;;;;-2.16;100.00;95066.84;1026843;28;20022;-70
2021/01/06 01:13:15;;;;;;;101.43;36.20;;;;;;;-2.16;100.00;95079.69;1031101;28;20034;-71
2021/01/06 01:13:45;;;;;;;101.50;35.55;;;;;;;-2.17;100.00;95077.31;1032395;28;20101;-69
2021/01/06 01:14:16;;;;;;;110.47;37.17;;;;;;;-2.20;100.00;95075.94;1040013;28;20037;-71
2021/01/06 01:14:46;;;;;;;110.30;38.33;;;;;;;-2.18;100.00;95078.28;1044179;28;20060;-71
2021/01/06 01:15:19;;;;;;;111.37;37.07;;;;;;;-2.24;100.00;95066.28;1043215;28;20029;-70
2021/01/06 01:15:51;;;;;;;107.60;35.22;;;;;;;-2.16;100.00;95077.13;1035026;28;20042;-72
2021/01/06 01:16:22;;;;;;;106.00;35.08;;;;;;;-2.26;100.00;95057.97;1031111;28;20092;-70
2021/01/06 01:16:53;;;;;;;115.80;36.80;;;;;;;-2.16;100.00;95077.13;1023128;29;20086;-71
2021/01/06 01:17:23;;;;;;;108.10;35.10;;;;;;;-2.17;100.00;95072.97;1026213;28;20038;-69
2021/01/06 01:17:54;;;;;;;105.43;34.93;;;;;;;-2.21;100.00;95079.50;1027146;28;20034;-70
2021/01/06 01:18:26;;;;;;;116.73;36.13;;;;;;;-2.24;100.00;95073.97;1031016;28;20558;-71
2021/01/06 01:18:56;;;;;;;110.13;36.30;;;;;;;-2.22;100.00;95079.69;1031337;28;20136;-71
2021/01/06 01:19:27;;;;;;;104.60;37.13;;;;;;;-2.25;100.00;95078.31;1034940;28;20596;-70
2021/01/06 01:19:57;;;;;;;111.00;36.60;;;;;;;-2.30;100.00;95064.50;1031448;28;20026;-71
2021/01/06 01:20:28;;;;;;;114.43;36.50;;;;;;;-2.34;100.00;95069.25;1030373;28;20022;-70
2021/01/06 01:20:58;;;;;;;106.87;37.17;;;;;;;-2.28;100.00;95068.44;1027147;28;20688;-74
2021/01/06 01:21:31;;;;;;;119.57;38.33;;;;;;;-2.24;100.00;95079.91;1027058;28;20019;-71
2021/01/06 01:22:01;;;;;;;117.28;38.40;;;;;;;-2.26;100.00;95075.94;1023127;29;20552;-70
2021/01/06 01:22:32;;;;;;;112.13;37.97;;;;;;;-2.24;100.00;95074.75;1025246;28;20046;-69
2021/01/06 01:23:02;;;;;;;123.83;39.27;;;;;;;-2.31;100.00;95068.03;1019734;28;20035;-73
2021/01/06 01:23:33;;;;;;;123.53;39.03;;;;;;;-2.25;100.00;95072.38;1027345;28;20030;-70
2021/01/06 01:24:04;;;;;;;122.60;40.27;;;;;;;-2.31;100.00;95068.84;1031012;28;20038;-70
2021/01/06 01:24:35;;;;;;;117.57;36.40;;;;;;;-2.30;100.00;95072.19;1038852;28;20033;-70
2021/01/06 01:25:06;;;;;;;125.03;39.97;;;;;;;-2.37;100.00;95056.78;1035372;28;20116;-70
2021/01/06 01:25:36;;;;;;;121.78;39.55;;;;;;;-2.28;100.00;95071.03;1029832;28;20053;-72
2021/01/06 01:26:10;;;;;;;124.63;39.07;;;;;;;-2.37;100.00;95060.13;1027667;28;20042;-70
2021/01/06 01:26:40;;;;;;;117.68;39.15;;;;;;;-2.28;100.00;95067.63;1023464;28;20063;-72
2021/01/06 01:27:11;;;;;;;123.53;39.80;;;;;;;-2.28;100.00;95065.06;1023923;28;20035;-70
2021/01/06 01:27:41;;;;;;;131.23;40.37;;;;;;;-2.30;100.00;95060.13;1030778;28;20398;-70
2021/01/06 01:28:15;;;;;;;128.43;39.27;;;;;;;-2.28;100.00;95057.34;1027030;28;20023;-71
2021/01/06 01:28:46;;;;;;;115.75;37.90;;;;;;;-2.29;100.00;95061.72;1022804;29;20019;-65
2021/01/06 01:29:16;;;;;;;116.23;38.40;;;;;;;-2.29;100.00;95054.00;1026975;28;20031;-73
2021/01/06 01:29:47;;;;;;;122.70;41.50;;;;;;;-2.26;100.00;95069.03;1026866;28;20027;-71
2021/01/06 01:30:21;;;;;;;118.53;38.17;;;;;;;-2.19;100.00;95066.44;1027440;28;20023;-70
2021/01/06 01:30:52;;;;;;;107.43;35.40;;;;;;;-2.19;100.00;95061.31;1025717;28;20015;-71
2021/01/06 01:31:36;;;;;;;118.30;37.87;;;;;;;-2.22;100.00;95066.84;1026959;28;20023;-71
2021/01/06 01:32:07;;;;;;;114.13;36.67;;;;;;;-2.25;100.00;95056.97;1025202;28;20094;-74
2021/01/06 01:32:40;;;;;;;118.13;39.77;;;;;;;-2.22;100.00;95066.84;1027576;28;20015;-71
2021/01/06 01:33:14;;;;;;;121.97;38.05;;;;;;;-2.19;100.00;95062.09;1029456;28;20015;-73
2021/01/06 01:33:45;;;;;;;124.55;38.90;;;;;;;-2.28;100.00;95047.91;1027818;28;20428;-71
2021/01/06 01:34:15;;;;;;;115.20;36.97;;;;;;;-2.18;100.00;95063.69;1028806;28;20025;-71
2021/01/06 01:34:46;;;;;;;120.70;38.27;;;;;;;-2.20;100.00;95064.88;1027429;28;20019;-72
2021/01/06 01:35:20;;;;;;;121.70;37.27;;;;;;;-2.26;100.00;95056.19;1027025;28;20026;-70
2021/01/06 01:35:51;;;;;;;120.93;37.53;;;;;;;-2.23;100.00;95060.13;1024590;28;20027;-70
2021/01/06 01:36:21;;;;;;;110.77;36.50;;;;;;;-2.20;100.00;95065.66;1019008;29;20051;-69
2021/01/06 01:36:52;;;;;;;124.00;39.60;;;;;;;-2.24;100.00;95061.13;1018854;29;20024;-69
2021/01/06 01:37:22;;;;;;;144.63;40.67;;;;;;;-2.28;100.00;95055.59;1023496;28;20031;-71
2021/01/06 01:37:56;;;;;;;131.63;38.20;;;;;;;-2.23;100.00;95065.28;1025849;28;20047;-70
2021/01/06 01:38:28;;;;;;;113.82;38.28;;;;;;;-2.21;100.00;95058.16;1025933;28;20678;-72
2021/01/06 01:38:59;;;;;;;117.03;38.13;;;;;;;-2.20;100.00;95065.66;1022648;29;20030;-71
2021/01/06 01:39:29;;;;;;;118.67;38.00;;;;;;;-2.24;100.00;95054.22;1026209;28;20033;-68
2021/01/06 01:40:00;;;;;;;115.60;38.07;;;;;;;-2.31;100.00;95043.16;1027156;28;20034;-69
2021/01/06 01:40:35;;;;;;;126.77;39.20;;;;;;;-2.20;100.00;95060.53;1026942;28;20038;-71
2021/01/06 01:41:09;;;;;;;119.63;37.83;;;;;;;-2.21;100.00;95058.94;1028109;28;20029;-69
2021/01/06 01:41:40;;;;;;;124.90;37.67;;;;;;;-2.23;100.00;95055.00;1028187;28;20054;-70
2021/01/06 01:42:10;;;;;;;120.73;37.00;;;;;;;-2.23;100.00;95058.34;1033433;28;20045;-70
2021/01/06 01:42:41;;;;;;;121.80;37.13;;;;;;;-2.22;100.00;95062.50;1031860;28;20014;-70
2021/01/06 01:43:16;;;;;;;128.70;37.17;;;;;;;-2.24;100.00;95061.13;1030874;28;20462;-70
2021/01/06 01:43:46;;;;;;;123.72;37.78;;;;;;;-2.23;100.00;95065.28;1031028;28;20030;-67
2021/01/06 01:44:16;;;;;;;138.77;39.93;;;;;;;-2.38;100.00;95047.50;1033542;28;20481;-70
2021/01/06 01:45:00;;;;;;;127.60;40.40;;;;;;;-2.31;100.00;95066.28;1026835;28;20026;-73
2021/01/06 01:45:40;;;;;;;118.85;37.42;;;;;;;-2.28;100.00;95065.88;1024657;28;20019;-70
2021/01/06 01:46:45;;;;;;;118.68;37.78;;;;;;;-2.23;100.00;95066.06;1029562;28;20033;-69
2021/01/06 01:47:16;;;;;;;108.00;35.53;;;;;;;-2.23;100.00;95063.50;1022080;29;20023;-70
2021/01/06 01:47:49;;;;;;;125.63;37.67;;;;;;;-2.33;100.00;95054.59;1018938;28;20020;-70
2021/01/06 01:48:38;;;;;;;130.63;38.75;;;;;;;-2.27;100.00;95069.22;1031023;28;20704;-69
2021/01/06 01:49:14;;;;;;;133.10;39.17;;;;;;;-2.26;100.00;95065.66;1030733;28;20517;-71
2021/01/06 01:49:47;;;;;;;130.60;39.08;;;;;;;-2.30;100.00;95072.97;1029097;28;20027;-71
2021/01/06 01:50:17;;;;;;;125.97;37.67;;;;;;;-2.31;100.00;95062.88;1022945;29;20044;-71
2021/01/06 01:50:48;;;;;;;140.63;40.77;;;;;;;-2.26;100.00;95065.66;1022844;29;20510;-71
2021/01/06 01:51:29;;;;;;;135.90;41.07;;;;;;;-2.29;100.00;95064.28;1023861;28;20103;-72
2021/01/06 01:52:02;;;;;;;129.48;36.47;;;;;;;-2.25;100.00;95068.03;1027111;28;20707;-74
2021/01/06 01:52:36;;;;;;;125.35;38.53;;;;;;;-2.25;100.00;95057.75;1026205;28;20034;-74
2021/01/06 01:53:08;;;;;;;131.73;39.67;;;;;;;-2.23;100.00;95066.06;1026459;28;20027;-73
2021/01/06 01:53:46;;;;;;;136.50;39.97;;;;;;;-2.35;100.00;95059.94;1026893;28;20101;-70
2021/01/06 01:54:17;;;;;;;123.40;39.05;;;;;;;-2.27;100.00;95058.97;1030981;28;20014;-72
2021/01/06 01:54:47;;;;;;;135.77;38.67;;;;;;;-2.26;100.00;95063.88;1034639;28;20030;-72
2021/01/06 01:55:19;;;;;;;139.10;38.40;;;;;;;-2.35;100.00;95051.44;1030802;28;20106;-70
2021/01/06 01:55:50;;;;;;;128.90;38.78;;;;;;;-2.29;100.00;95061.72;1026701;28;20027;-71
2021/01/06 01:56:21;;;;;;;126.97;39.33;;;;;;;-2.42;100.00;95041.16;1026929;28;20019;-71
2021/01/06 01:57:11;;;;;;;152.10;43.15;;;;;;;-2.25;100.00;95068.03;1030916;28;20026;-74
2021/01/06 01:57:45;;;;;;;139.80;40.50;;;;;;;-2.28;100.00;95060.75;1030756;28;20019;-70
2021/01/06 01:58:19;;;;;;;124.85;38.25;;;;;;;-2.24;100.00;95069.63;1026516;28;20041;-71
2021/01/06 01:58:50;;;;;;;128.77;39.80;;;;;;;-2.25;100.00;95062.88;1035130;28;20037;-72
2021/01/06 01:59:45;;;;;;;126.23;37.87;;;;;;;-2.17;100.00;95069.63;1031235;28;20489;-72
2021/01/06 02:00:17;;;;;;;127.68;38.42;;;;;;;-2.28;100.00;95058.16;1026113;28;20120;-71
2021/01/06 02:00:48;;;;;;;129.82;40.30;;;;;;;-2.21;100.00;95071.00;1026541;28;20093;-72
2021/01/06 02:01:22;;;;;;;129.27;38.83;;;;;;;-2.18;100.00;95071.41;1018996;29;20078;-72
2021/01/06 02:01:52;;;;;;;127.95;38.78;;;;;;;-2.16;100.00;95064.25;1022879;29;20022;-72
2021/01/06 02:02:35;;;;;;;120.23;38.10;;;;;;;-2.25;100.00;95051.81;1022440;29;20034;-71
2021/01/06 02:03:18;;;;;;;132.90;38.60;;;;;;;-2.25;100.00;95052.59;1023067;28;20122;-75
2021/01/06 02:04:19;;;;;;;123.85;37.28;;;;;;;-2.15;100.00;95068.44;1026711;28;20030;-71
2021/01/06 02:04:52;;;;;;;;;;;;;;;-2.17;100.00;95064.47;1029019;28;20046;-71
2021/01/06 02:05:26;;;;;;;110.72;34.03;;;;;;;-2.18;100.00;95058.56;1033409;28;19909;-71
2021/01/06 02:06:07;;;;;;;116.30;37.13;;;;;;;-2.17;100.00;95059.34;1031098;28;20053;-71
2021/01/06 02:06:41;;;;;;;115.55;35.60;;;;;;;-2.18;100.00;95061.13;1032132;28;20025;-71
2021/01/06 02:07:15;;;;;;;127.80;38.22;;;;;;;-2.25;100.00;95044.91;1030968;28;20026;-71
2021/01/06 02:08:05;;;;;;;119.90;36.60;;;;;;;-2.24;100.00;95040.56;1030819;28;20734;-72
2021/01/06 02:08:38;;;;;;;129.68;38.58;;;;;;;-2.18;100.00;95058.56;1038372;28;20017;-71
2021/01/06 02:09:16;;;;;;;139.45;39.58;;;;;;;-2.18;100.00;95055.97;1026775;28;20019;-71
2021/01/06 02:10:08;;;;;;;143.00;40.03;;;;;;;-2.17;100.00;95054.19;1026884;28;20057;-71
2021/01/06 02:10:42;;;;;;;121.63;36.45;;;;;;;-2.12;100.00;95054.38;1026980;28;20025;-71
2021/01/06 02:11:19;;;;;;;126.72;39.42;;;;;;;-2.11;100.00;95052.59;1027223;28;20474;-71
2021/01/06 02:11:56;;;;;;;125.32;39.40;;;;;;;-2.13;100.00;95045.88;1025284;28;20023;-69
2021/01/06 02:12:47;;;;;;;120.97;39.00;;;;;;;-2.14;100.00;95054.59;1030274;28;20057;-72
2021/01/06 02:13:22;;;;;;;;;;;;;;;-2.13;100.00;95051.03;1027739;28;20019;-70
2021/01/06 02:13:57;;;;;;;124.68;35.67;;;;;;;-2.20;100.00;95039.19;1031093;28;19957;-72
2021/01/06 02:14:31;;;;;;;125.47;39.20;;;;;;;-2.16;100.00;95041.13;1031344;28;20022;-70
2021/01/06 02:15:28;;;;;;;136.68;39.83;;;;;;;-2.14;100.00;95049.44;1028739;28;20047;-70
2021/01/06 02:16:10;;;;;;;124.70;36.70;;;;;;;-2.13;100.00;95048.44;1014315;28;20045;-71
2021/01/06 02:16:44;;;;;;;115.05;36.47;;;;;;;-2.13;100.00;95045.09;1033304;28;20559;-71
2021/01/06 02:17:14;;;;;;;140.85;39.28;;;;;;;-2.15;100.00;95050.44;1036853;28;20664;-71
2021/01/06 02:17:45;;;;;;;120.67;37.83;;;;;;;-2.13;100.00;95045.88;1033033;28;20027;-72
2021/01/06 02:18:15;;;;;;;129.17;41.70;;;;;;;-2.15;100.00;95036.78;1035082;28;20018;-72
2021/01/06 02:18:46;;;;;;;138.17;40.40;;;;;;;-2.19;100.00;95033.81;1026018;28;20035;-72
2021/01/06 02:19:19;;;;;;;142.53;40.40;;;;;;;-2.21;100.00;95027.34;1027058;28;20039;-71
2021/01/06 02:19:49;;;;;;;131.55;37.80;;;;;;;-2.10;100.00;95044.69;1027330;28;20014;-70
2021/01/06 02:20:22;;;;;;;132.70;39.83;;;;;;;-2.09;100.00;95045.47;1026525;28;20035;-70
2021/01/06 02:21:09;;;;;;;136.65;38.85;;;;;;;-2.12;100.00;95046.66;1027261;28;20033;-72
2021/01/06 02:21:40;;;;;;;121.40;38.70;;;;;;;-2.19;100.00;95041.53;1022974;29;20065;-70
2021/01/06 02:22:15;;;;;;;132.37;39.17;;;;;;;-2.16;100.00;95035.22;1027971;28;20490;-72
2021/01/06 02:22:45;;;;;;;130.25;37.92;;;;;;;-2.13;100.00;95045.88;1025671;28;20031;-71
2021/01/06 02:23:16;;;;;;;128.83;40.57;;;;;;;-2.17;100.00;95038.78;1025291;28;20024;-73
2021/01/06 02:23:48;;;;;;;137.43;40.50;;;;;;;-2.21;100.00;95029.91;1026949;28;20054;-71
2021/01/06 02:24:18;;;;;;;126.78;39.72;;;;;;;-2.16;100.00;95041.13;1026815;28;20544;-72
2021/01/06 02:24:49;;;;;;;131.80;39.33;;;;;;;-2.24;100.00;95032.88;1026711;28;20027;-71
2021/01/06 02:25:20;;;;;;;129.73;38.25;;;;;;;-2.20;100.00;95039.97;1024567;28;20399;-71
2021/01/06 02:25:51;;;;;;;131.50;38.13;;;;;;;-2.11;100.00;95047.44;1030781;28;20054;-71
2021/01/06 02:26:22;;;;;;;113.10;36.77;;;;;;;-2.23;100.00;95024.94;1031196;28;20032;-72
2021/01/06 02:26:52;;;;;;;131.73;38.97;;;;;;;-2.14;100.00;95044.31;1030542;28;20026;-71
2021/01/06 02:27:22;;;;;;;126.10;39.07;;;;;;;-2.14;100.00;95039.16;1033766;28;20080;-71
2021/01/06 02:27:55;;;;;;;132.30;39.30;;;;;;;-2.25;100.00;95026.91;1026839;28;20099;-70
2021/01/06 02:28:25;;;;;;;139.55;40.10;;;;;;;-2.16;100.00;95038.56;1026903;28;20022;-71